• Join FlightAware (Why Join?)
  • Login
  • US Flag 
05:40AM EST


 

Airport Tracker/Info


-or-


 

Live Flight TrackerFlight Track Log ✈ AAR8731 ✈ 25-Jul-2013 ✈ RKSS / GMP - RKJY / RSU

Flight Track Log - Related Links

Times and Time Zones

All times are in EDT time to prevent confusion due to time zone crossing. See the AAR8731 flight status page for this flight to view local times or setup timezone preferences in your user account.

Time Position Orientation Groundspeed Altitude Reporting Facility
EDT Latitude Longitude Course Direction KTS MPH feet Rate Location/Type
06:38PM 37.2767 126.8788 166° South  Level Estimated
06:39PM 37.1829 126.9081 166° South  Level Estimated
06:39PM 37.4750 126.6460 166° South 343 395 11,400  Level FlightAware
06:40PM 37.0890 126.9373 166° South  Level Estimated
06:40PM 37.4030 126.6630 169° South 392 451 12,400  Level FlightAware
06:41PM 37.2910 126.6900 169° South 409 471 15,000 2,280 Climbing FlightAware
06:41PM 37.2120 126.7090 169° South 429 494 16,200 960 Climbing FlightAware
06:42PM 37.1360 126.7270 169° South 440 506 16,400 120 Climbing FlightAware
06:43PM 37.0730 126.7430 169° South 440 506 16,400  Level FlightAware
06:43PM 37.0120 126.7580 169° South 440 506 16,400  Level FlightAware
06:44PM 36.9490 126.7730 169° South 440 506 16,400  Level FlightAware
06:45PM 36.8670 126.7930 169° South 440 506 16,400  Level FlightAware
06:45PM 36.8060 126.8080 169° South 440 506 16,400  Level FlightAware
06:48PM 36.5937 126.8972 161° South  Level Estimated
06:49PM 36.5020 126.9356 161° South  Level Estimated
06:50PM 36.4103 126.9739 161° South  Level Estimated
06:51PM 36.3186 127.0121 161° South  Level Estimated
06:52PM 36.2269 127.0502 161° South  Level Estimated
06:53PM 36.1352 127.0882 161° South  Level Estimated
06:54PM 36.0435 127.1261 162° South  Level Estimated
06:55PM 35.9517 127.1640 162° South  Level Estimated
06:56PM 35.8600 127.2017 162° South  Level Estimated
06:57PM 35.7682 127.2394 162° South  Level Estimated
06:58PM 35.6764 127.2769 162° South  Level Estimated
06:59PM 35.5846 127.3144 162° South  Level Estimated
07:00PM 35.4928 127.3518 162° South  Level Estimated
07:01PM 35.4010 127.3892 162° South  Level Estimated
07:02PM 35.3092 127.4264 162° South  Level Estimated
07:03PM 35.2173 127.4635 162° South  Level Estimated
07:04PM 35.1255 127.5006 162° South  Level Estimated
07:05PM 35.0336 127.5376 162° South  Level Estimated
07:06PM 34.9418 127.5745 162° South  Level Estimated
07:07PM 34.8499 127.6113 162° South  Level Estimated
07:08PM 34.8398 127.6153 162° South  Level Estimated
07:09PM 34.8398 127.6153 180° South  Level Estimated
07:10PM 34.8398 127.6153 180° South  Level Estimated
07:11PM 34.8398 127.6153 180° South  Level Estimated
07:12PM 34.8398 127.6153 180° South  Level Estimated
07:13PM 34.8398 127.6153 180° South  Level Estimated
07:14PM 34.8398 127.6153 180° South  Level Estimated
07:15PM 34.8398 127.6153 180° South  Level Estimated
07:16PM 34.8398 127.6153 180° South  Level Estimated